createdAt,value
2019-04-07T00:00:46.568Z,9.00
2019-04-07T00:03:14.529Z,9.00
2019-04-07T00:05:42.574Z,9.10
2019-04-07T00:08:11.145Z,9.10
2019-04-07T00:10:39.047Z,9.30
2019-04-07T00:13:07.122Z,9.20
2019-04-07T00:15:35.042Z,9.30
2019-04-07T00:18:03.411Z,9.30
2019-04-07T00:20:31.894Z,9.30
2019-04-07T00:22:59.769Z,9.30
2019-04-07T00:25:27.664Z,9.30
2019-04-07T00:28:04.115Z,9.20
2019-04-07T00:30:31.837Z,9.20
2019-04-07T00:32:59.630Z,9.20
2019-04-07T00:35:31.496Z,9.20
2019-04-07T00:37:58.274Z,9.10
2019-04-07T00:40:26.979Z,9.00
2019-04-07T00:42:55.506Z,8.90
2019-04-07T00:45:23.962Z,8.80
2019-04-07T00:47:51.836Z,8.70
2019-04-07T00:50:19.581Z,8.80
2019-04-07T00:52:47.220Z,8.80
2019-04-07T00:55:15.064Z,8.80
2019-04-07T00:57:42.992Z,8.90
2019-04-07T01:00:12.363Z,8.90
2019-04-07T01:02:40.036Z,8.90
2019-04-07T01:05:07.955Z,8.90
2019-04-07T01:07:35.682Z,8.90
2019-04-07T01:10:05.034Z,8.90
2019-04-07T01:12:33.596Z,8.90
2019-04-07T01:15:01.395Z,8.90
2019-04-07T01:17:29.160Z,8.80
2019-04-07T01:19:56.819Z,8.80
2019-04-07T01:22:24.524Z,8.70
2019-04-07T01:24:52.658Z,8.70
2019-04-07T01:27:21.153Z,8.60
2019-04-07T01:29:49.169Z,8.60
2019-04-07T01:32:16.982Z,8.60
2019-04-07T01:34:44.663Z,8.60
2019-04-07T01:37:12.371Z,8.60
2019-04-07T01:39:40.095Z,8.50
2019-04-07T01:42:16.949Z,8.60
2019-04-07T01:45:02.767Z,8.60
2019-04-07T01:47:49.845Z,8.60
2019-04-07T01:50:49.303Z,8.60
2019-04-07T01:53:37.436Z,8.70
2019-04-07T01:56:15.636Z,8.60
2019-04-07T01:59:05.680Z,8.60
2019-04-07T02:01:54.610Z,8.50
2019-04-07T02:04:40.533Z,8.50
2019-04-07T02:07:16.125Z,8.40
2019-04-07T02:10:09.695Z,8.40
2019-04-07T02:12:57.986Z,8.40
2019-04-07T02:15:48.226Z,8.30
2019-04-07T02:18:21.560Z,8.20
2019-04-07T02:21:09.608Z,8.10
2019-04-07T02:24:00.054Z,8.10
2019-04-07T02:26:53.201Z,8.10
2019-04-07T02:29:52.771Z,8.00
2019-04-07T02:32:35.657Z,8.00
2019-04-07T02:35:22.908Z,8.10
2019-04-07T02:37:58.707Z,8.00
2019-04-07T02:40:55.672Z,7.90
2019-04-07T02:43:46.566Z,7.90
2019-04-07T02:46:20.415Z,7.90
2019-04-07T02:48:54.378Z,7.70
2019-04-07T02:51:33.942Z,7.60
2019-04-07T02:54:32.315Z,7.50
2019-04-07T02:57:22.231Z,7.50
2019-04-07T03:00:27.910Z,7.40
2019-04-07T03:03:14.213Z,7.30
2019-04-07T03:05:54.302Z,7.30
2019-04-07T03:08:41.532Z,7.20
2019-04-07T03:11:22.512Z,7.20
2019-04-07T03:13:54.090Z,7.10
2019-04-07T03:16:42.202Z,7.10
2019-04-07T03:19:39.329Z,7.10
2019-04-07T03:22:25.724Z,7.00
2019-04-07T03:25:11.408Z,7.00
2019-04-07T03:27:48.643Z,7.00
2019-04-07T03:30:28.407Z,6.90
2019-04-07T03:33:15.336Z,6.90
2019-04-07T03:35:51.106Z,6.80
2019-04-07T03:38:34.067Z,6.70
2019-04-07T03:41:24.330Z,6.70
2019-04-07T03:44:03.971Z,6.60
2019-04-07T03:46:45.693Z,6.50
2019-04-07T03:49:20.077Z,6.60
2019-04-07T03:52:10.300Z,6.50
2019-04-07T03:54:57.778Z,6.40
2019-04-07T03:57:39.081Z,6.40
2019-04-07T04:00:29.989Z,6.30
2019-04-07T04:03:03.713Z,6.20
2019-04-07T04:05:53.607Z,6.20
2019-04-07T04:08:31.431Z,6.10
2019-04-07T04:11:25.385Z,6.10
2019-04-07T04:14:18.496Z,6.00
2019-04-07T04:16:49.177Z,6.00
2019-04-07T04:19:16.838Z,6.00
2019-04-07T04:21:44.558Z,6.00
2019-04-07T04:24:12.539Z,6.00
2019-04-07T04:26:41.987Z,6.00
2019-04-07T04:29:10.387Z,6.00
2019-04-07T04:31:38.852Z,6.00
2019-04-07T04:34:06.771Z,6.00
2019-04-07T04:36:34.436Z,6.00
2019-04-07T04:39:02.200Z,6.00
2019-04-07T04:41:29.876Z,5.90
2019-04-07T04:43:58.034Z,6.00
2019-04-07T04:46:27.481Z,6.00
2019-04-07T04:48:55.504Z,6.10
2019-04-07T04:51:24.859Z,6.00
2019-04-07T04:53:52.589Z,5.90
2019-04-07T04:56:20.288Z,5.80
2019-04-07T04:58:48.020Z,5.70
2019-04-07T05:01:16.268Z,5.80
2019-04-07T05:03:44.093Z,5.80
2019-04-07T05:06:11.939Z,5.80
2019-04-07T05:08:40.426Z,5.80
2019-04-07T05:11:09.109Z,5.80
2019-04-07T05:13:37.324Z,5.70
2019-04-07T05:16:05.698Z,5.60
2019-04-07T05:18:33.609Z,5.50
2019-04-07T05:21:01.965Z,5.50
2019-04-07T05:23:30.682Z,5.50
2019-04-07T05:25:59.231Z,5.50
2019-04-07T05:28:27.742Z,5.40
2019-04-07T05:30:55.804Z,5.30
2019-04-07T05:33:24.523Z,5.40
2019-04-07T05:35:53.216Z,5.40
2019-04-07T05:38:21.343Z,5.40
2019-04-07T05:40:50.079Z,5.50
2019-04-07T05:43:18.495Z,5.50
2019-04-07T05:45:46.681Z,5.50
2019-04-07T05:48:17.334Z,5.50
2019-04-07T05:50:44.918Z,5.40
2019-04-07T05:53:14.714Z,5.50
2019-04-07T05:55:42.816Z,5.50
2019-04-07T05:58:11.690Z,5.60
2019-04-07T06:00:41.589Z,5.60
2019-04-07T06:03:09.537Z,5.70
2019-04-07T06:05:38.472Z,5.70
2019-04-07T06:08:22.655Z,5.60
2019-04-07T06:10:38.625Z,5.70
2019-04-07T06:13:09.344Z,5.70
2019-04-07T06:15:38.142Z,5.60
2019-04-07T06:18:06.161Z,5.60
2019-04-07T06:20:34.538Z,5.60
2019-04-07T06:23:02.583Z,5.60
2019-04-07T06:25:37.824Z,5.80
2019-04-07T06:28:00.975Z,5.80
2019-04-07T06:30:31.238Z,5.80
2019-04-07T06:32:59.607Z,5.90
2019-04-07T06:35:28.577Z,6.00
2019-04-07T06:37:59.370Z,6.10
2019-04-07T06:40:26.348Z,6.20
2019-04-07T06:42:54.554Z,6.20
2019-04-07T06:45:26.092Z,6.20
2019-04-07T06:47:56.728Z,6.30
2019-04-07T06:50:31.320Z,6.40
2019-04-07T06:53:20.728Z,6.40
2019-04-07T06:56:14.317Z,6.50
2019-04-07T06:59:11.861Z,6.60
2019-04-07T07:01:59.125Z,6.70
2019-04-07T07:04:56.105Z,6.70
2019-04-07T07:07:42.564Z,6.90
2019-04-07T07:10:35.689Z,6.90
2019-04-07T07:13:28.834Z,7.00
2019-04-07T07:16:14.044Z,7.10
2019-04-07T07:18:56.768Z,7.10
2019-04-07T07:21:44.254Z,7.20
2019-04-07T07:24:14.676Z,7.30
2019-04-07T07:26:42.849Z,7.40
2019-04-07T07:29:13.248Z,7.40
2019-04-07T07:31:41.641Z,7.40
2019-04-07T07:34:11.081Z,7.60
2019-04-07T07:36:39.423Z,7.60
2019-04-07T07:39:10.225Z,7.60
2019-04-07T07:41:37.809Z,7.60
2019-04-07T07:44:08.461Z,7.60
2019-04-07T07:46:35.599Z,7.60
2019-04-07T07:49:04.302Z,7.70
2019-04-07T07:51:34.962Z,7.80
2019-04-07T07:54:02.423Z,8.00
2019-04-07T07:56:31.245Z,8.00
2019-04-07T07:59:01.507Z,8.00
2019-04-07T08:01:29.992Z,8.10
2019-04-07T08:03:58.626Z,8.20
2019-04-07T08:06:26.691Z,8.30
2019-04-07T08:09:07.747Z,8.30
2019-04-07T08:11:25.028Z,8.40
2019-04-07T08:13:53.681Z,8.50
2019-04-07T08:16:21.715Z,8.60
2019-04-07T08:18:49.984Z,8.70
2019-04-07T08:21:19.949Z,8.80
2019-04-07T08:23:49.090Z,8.90
2019-04-07T08:26:18.237Z,9.00
2019-04-07T08:28:46.945Z,9.10
2019-04-07T08:31:17.900Z,9.20
2019-04-07T08:33:45.246Z,9.40
2019-04-07T08:36:14.221Z,9.40
2019-04-07T08:38:43.536Z,9.50
2019-04-07T08:41:14.289Z,9.50
2019-04-07T08:43:42.016Z,9.60
2019-04-07T08:46:09.985Z,9.60
2019-04-07T08:48:38.794Z,9.70
2019-04-07T08:51:08.477Z,9.80
2019-04-07T08:53:36.492Z,9.80
2019-04-07T08:56:06.875Z,9.80
2019-04-07T08:58:38.461Z,9.90
2019-04-07T09:01:05.338Z,10.10
2019-04-07T09:03:33.574Z,10.20
2019-04-07T09:06:01.451Z,10.30
2019-04-07T09:08:30.686Z,10.30
2019-04-07T09:11:10.111Z,10.30
2019-04-07T09:13:38.477Z,10.40
2019-04-07T09:16:22.536Z,10.60
2019-04-07T09:19:04.970Z,10.70
2019-04-07T09:21:51.713Z,10.50
2019-04-07T09:24:45.035Z,10.40
2019-04-07T09:27:24.583Z,10.60
2019-04-07T09:30:18.045Z,10.70
2019-04-07T09:33:05.954Z,10.80
2019-04-07T09:35:56.649Z,10.70
2019-04-07T09:38:59.961Z,10.70
2019-04-07T09:41:45.971Z,10.80
2019-04-07T09:44:20.891Z,11.00
2019-04-07T09:47:11.271Z,11.00
2019-04-07T09:49:58.266Z,11.20
2019-04-07T09:52:45.907Z,11.40
2019-04-07T09:55:33.233Z,11.40
2019-04-07T09:58:10.842Z,11.50
2019-04-07T10:00:58.475Z,11.50
2019-04-07T10:03:45.831Z,11.50
2019-04-07T10:06:51.059Z,11.60
2019-04-07T10:09:31.299Z,11.60
2019-04-07T10:12:18.498Z,11.70
2019-04-07T10:14:55.264Z,11.80
2019-04-07T10:17:41.756Z,12.00
2019-04-07T10:20:42.768Z,12.00
2019-04-07T10:23:30.431Z,12.10
2019-04-07T10:26:06.264Z,12.30
2019-04-07T10:28:50.469Z,12.30
2019-04-07T10:31:52.899Z,12.20
2019-04-07T10:34:39.663Z,12.20
2019-04-07T10:37:44.969Z,12.30
2019-04-07T10:40:24.435Z,12.40
2019-04-07T10:43:10.709Z,12.50
2019-04-07T10:46:00.439Z,12.50
2019-04-07T10:49:05.855Z,12.60
2019-04-07T10:51:59.317Z,12.90
2019-04-07T10:54:52.514Z,13.00
2019-04-07T10:57:38.900Z,12.70
2019-04-07T11:00:30.263Z,12.90
2019-04-07T11:03:26.375Z,13.10
2019-04-07T11:06:12.706Z,12.90
2019-04-07T11:08:59.009Z,12.90
2019-04-07T11:11:43.681Z,12.30
2019-04-07T11:14:29.527Z,12.10
2019-04-07T11:17:16.166Z,12.10
2019-04-07T11:20:02.890Z,12.10
2019-04-07T11:22:50.050Z,12.50
2019-04-07T11:25:47.760Z,13.10
2019-04-07T11:28:37.918Z,13.40
2019-04-07T11:31:18.853Z,14.00
2019-04-07T11:34:09.370Z,14.50
2019-04-07T11:36:45.666Z,14.60
2019-04-07T11:39:27.414Z,14.90
2019-04-07T11:42:12.128Z,14.90
2019-04-07T11:44:55.810Z,14.90
2019-04-07T11:47:45.985Z,15.00
2019-04-07T11:50:27.956Z,14.80
2019-04-07T11:53:21.220Z,14.60
2019-04-07T11:55:56.417Z,14.20
2019-04-07T11:58:39.804Z,13.50
2019-04-07T12:01:26.102Z,13.40
2019-04-07T12:04:22.591Z,13.30
2019-04-07T12:07:08.944Z,13.40
2019-04-07T12:09:59.656Z,13.80
2019-04-07T12:12:39.666Z,13.80
2019-04-07T12:15:26.865Z,13.70
2019-04-07T12:18:16.797Z,14.00
2019-04-07T12:20:52.979Z,14.00
2019-04-07T12:23:35.191Z,13.80
2019-04-07T12:26:41.041Z,13.90
2019-04-07T12:29:25.448Z,13.60
2019-04-07T12:32:19.119Z,13.70
2019-04-07T12:35:04.254Z,14.00
2019-04-07T12:37:59.206Z,13.90
2019-04-07T12:40:54.974Z,14.00
2019-04-07T12:43:47.389Z,14.10
2019-04-07T12:46:51.318Z,13.80
2019-04-07T12:49:42.117Z,13.60
2019-04-07T12:52:30.700Z,14.00
2019-04-07T12:55:22.715Z,14.20
2019-04-07T12:58:26.597Z,13.90
2019-04-07T13:01:19.138Z,14.00
2019-04-07T13:03:54.738Z,13.70
2019-04-07T13:06:33.374Z,13.80
2019-04-07T13:09:33.346Z,14.00
2019-04-07T13:12:20.428Z,13.70
2019-04-07T13:15:05.464Z,13.30
2019-04-07T13:17:55.242Z,13.40
2019-04-07T13:20:39.708Z,13.50
2019-04-07T13:23:17.709Z,13.40
2019-04-07T13:25:54.309Z,13.40
2019-04-07T13:28:45.428Z,13.70
2019-04-07T13:31:36.304Z,13.50
2019-04-07T13:34:24.492Z,13.40
2019-04-07T13:37:10.576Z,13.20
2019-04-07T13:39:56.697Z,13.30
2019-04-07T13:42:59.064Z,13.40
2019-04-07T13:45:37.860Z,13.70
2019-04-07T13:48:34.427Z,14.10
2019-04-07T13:51:21.577Z,13.80
2019-04-07T13:54:10.992Z,14.00
2019-04-07T13:57:01.178Z,13.90
2019-04-07T13:59:56.597Z,14.00
2019-04-07T14:02:35.947Z,13.80
2019-04-07T14:05:24.921Z,13.90
2019-04-07T14:08:14.943Z,13.90
2019-04-07T14:11:10.134Z,14.10
2019-04-07T14:14:05.880Z,14.20
2019-04-07T14:16:51.834Z,14.20
2019-04-07T14:19:37.647Z,14.30
2019-04-07T14:22:16.601Z,14.10
2019-04-07T14:24:51.482Z,14.20
2019-04-07T14:27:38.431Z,14.20
2019-04-07T14:30:41.313Z,14.30
2019-04-07T14:33:24.152Z,14.20
2019-04-07T14:36:04.849Z,13.90
2019-04-07T14:38:46.668Z,13.70
2019-04-07T14:41:39.504Z,13.40
2019-04-07T14:44:30.353Z,13.40
2019-04-07T14:47:17.496Z,13.30
2019-04-07T14:50:11.850Z,13.20
2019-04-07T14:52:59.818Z,13.20
2019-04-07T14:55:36.839Z,13.30
2019-04-07T14:58:33.056Z,13.40
2019-04-07T15:01:22.489Z,13.40
2019-04-07T15:03:52.503Z,13.20
2019-04-07T15:06:20.577Z,13.10
2019-04-07T15:09:06.461Z,13.30
2019-04-07T15:12:17.564Z,13.30
2019-04-07T15:14:39.732Z,13.30
2019-04-07T15:17:07.803Z,13.20
2019-04-07T15:19:36.215Z,13.00
2019-04-07T15:22:04.578Z,13.20
2019-04-07T15:24:35.788Z,13.30
2019-04-07T15:27:03.138Z,13.30
2019-04-07T15:29:32.410Z,13.40
2019-04-07T15:32:00.206Z,13.20
2019-04-07T15:34:28.556Z,13.20
2019-04-07T15:36:56.838Z,13.30
2019-04-07T15:39:28.017Z,13.20
2019-04-07T15:41:54.343Z,13.30
2019-04-07T15:44:22.774Z,13.50
2019-04-07T15:46:53.262Z,13.40
2019-04-07T15:49:20.531Z,13.20
2019-04-07T15:51:48.796Z,13.30
2019-04-07T15:54:20.213Z,13.20
2019-04-07T15:56:49.246Z,13.10
2019-04-07T15:59:17.960Z,13.20
2019-04-07T16:01:46.127Z,13.10
2019-04-07T16:04:14.101Z,13.20
2019-04-07T16:06:41.979Z,13.10
2019-04-07T16:09:17.713Z,13.10
2019-04-07T16:11:40.335Z,13.10
2019-04-07T16:14:12.565Z,13.00
2019-04-07T16:16:38.323Z,13.10
2019-04-07T16:19:08.792Z,13.00
2019-04-07T16:21:39.288Z,13.00
2019-04-07T16:24:06.161Z,13.00
2019-04-07T16:26:36.989Z,12.80
2019-04-07T16:29:03.720Z,12.80
2019-04-07T16:31:32.205Z,12.80
2019-04-07T16:34:00.292Z,12.90
2019-04-07T16:36:28.264Z,12.90
2019-04-07T16:38:56.503Z,12.80
2019-04-07T16:41:25.950Z,12.90
2019-04-07T16:43:53.772Z,12.90
2019-04-07T16:46:24.367Z,12.90
2019-04-07T16:48:51.307Z,12.90
2019-04-07T16:51:19.132Z,12.90
2019-04-07T16:53:46.827Z,12.80
2019-04-07T16:56:14.732Z,12.80
2019-04-07T16:58:42.456Z,12.70
2019-04-07T17:01:10.849Z,12.70
2019-04-07T17:03:39.646Z,12.70
2019-04-07T17:06:20.922Z,12.70
2019-04-07T17:08:52.893Z,12.70
2019-04-07T17:11:20.764Z,12.80
2019-04-07T17:13:49.165Z,12.70
2019-04-07T17:16:22.165Z,12.80
2019-04-07T17:18:48.557Z,12.70
2019-04-07T17:21:18.337Z,12.70
2019-04-07T17:23:46.177Z,12.60
2019-04-07T17:26:16.848Z,12.60
2019-04-07T17:28:47.118Z,12.60
2019-04-07T17:31:14.348Z,12.60
2019-04-07T17:34:11.737Z,12.60
2019-04-07T17:36:31.344Z,12.50
2019-04-07T17:39:18.897Z,12.50
2019-04-07T17:42:01.473Z,12.50
2019-04-07T17:44:50.458Z,12.40
2019-04-07T17:47:37.062Z,12.30
2019-04-07T17:50:40.458Z,12.30
2019-04-07T17:53:21.843Z,12.40
2019-04-07T17:56:18.896Z,12.30
2019-04-07T17:59:04.438Z,12.30
2019-04-07T18:02:10.689Z,12.30
2019-04-07T18:04:58.048Z,12.30
2019-04-07T18:07:43.457Z,12.10
2019-04-07T18:10:17.722Z,12.00
2019-04-07T18:13:10.872Z,12.00
2019-04-07T18:16:06.365Z,11.90
2019-04-07T18:19:02.703Z,11.90
2019-04-07T18:21:52.135Z,11.90
2019-04-07T18:24:30.555Z,11.80
2019-04-07T18:27:14.172Z,11.80
2019-04-07T18:30:20.557Z,11.70
2019-04-07T18:33:13.001Z,11.80
2019-04-07T18:36:12.019Z,11.70
2019-04-07T18:39:07.920Z,11.70
2019-04-07T18:42:09.810Z,11.60
2019-04-07T18:45:07.989Z,11.60
2019-04-07T18:47:59.366Z,11.60
2019-04-07T18:50:47.912Z,11.50
2019-04-07T18:53:26.166Z,11.50
2019-04-07T18:56:03.477Z,11.40
2019-04-07T18:58:52.675Z,11.40
2019-04-07T19:01:47.680Z,11.40
2019-04-07T19:04:41.389Z,11.30
2019-04-07T19:07:31.677Z,11.30
2019-04-07T19:10:10.592Z,11.30
2019-04-07T19:12:47.709Z,11.20
2019-04-07T19:15:24.042Z,11.20
2019-04-07T19:18:27.113Z,11.20
2019-04-07T19:21:16.439Z,11.20
2019-04-07T19:23:50.872Z,11.10
2019-04-07T19:26:52.324Z,11.10
2019-04-07T19:29:34.211Z,11.00
2019-04-07T19:32:27.482Z,11.00
2019-04-07T19:35:11.469Z,10.90
2019-04-07T19:37:50.650Z,10.80
2019-04-07T19:40:48.341Z,10.80
2019-04-07T19:43:43.740Z,10.70
2019-04-07T19:46:29.204Z,10.50
2019-04-07T19:49:18.966Z,10.40
2019-04-07T19:52:12.674Z,10.40
2019-04-07T19:55:14.726Z,10.30
2019-04-07T19:57:54.765Z,10.20
2019-04-07T20:00:35.601Z,10.10
2019-04-07T20:03:28.564Z,10.10
2019-04-07T20:06:09.224Z,10.10
2019-04-07T20:08:49.373Z,10.10
2019-04-07T20:11:35.836Z,10.00
2019-04-07T20:14:13.910Z,10.00
2019-04-07T20:17:04.107Z,9.90
2019-04-07T20:19:53.580Z,10.00
2019-04-07T20:22:47.088Z,9.90
2019-04-07T20:25:35.294Z,9.90
2019-04-07T20:28:30.251Z,9.90
2019-04-07T20:31:21.807Z,9.90
2019-04-07T20:34:12.056Z,9.80
2019-04-07T20:37:01.896Z,9.80
2019-04-07T20:39:37.443Z,9.70
2019-04-07T20:42:23.596Z,9.70
2019-04-07T20:45:17.198Z,9.70
2019-04-07T20:48:11.477Z,9.70
2019-04-07T20:50:50.612Z,9.70
2019-04-07T20:53:39.445Z,9.60
2019-04-07T20:56:35.434Z,9.60
2019-04-07T20:59:20.463Z,9.60
2019-04-07T21:02:12.543Z,9.70
2019-04-07T21:05:08.818Z,9.70
2019-04-07T21:07:53.593Z,9.60
2019-04-07T21:10:42.059Z,9.50
2019-04-07T21:13:32.204Z,9.40
2019-04-07T21:16:23.448Z,9.40
2019-04-07T21:18:55.190Z,9.50
2019-04-07T21:21:43.895Z,9.50
2019-04-07T21:24:29.259Z,9.50
2019-04-07T21:27:19.255Z,9.50
2019-04-07T21:29:55.452Z,9.40
2019-04-07T21:32:49.759Z,9.40
2019-04-07T21:35:44.763Z,9.40
2019-04-07T21:38:24.494Z,9.40
2019-04-07T21:41:17.097Z,9.40
2019-04-07T21:44:20.018Z,9.40
2019-04-07T21:47:23.531Z,9.50
2019-04-07T21:50:24.475Z,9.60
2019-04-07T21:53:03.095Z,9.60
2019-04-07T21:55:48.573Z,9.60
2019-04-07T21:58:48.593Z,9.60
2019-04-07T22:01:50.966Z,9.70
2019-04-07T22:04:38.211Z,9.70
2019-04-07T22:07:20.217Z,9.70
2019-04-07T22:09:54.618Z,9.60
2019-04-07T22:12:25.782Z,9.60
2019-04-07T22:14:52.741Z,9.60
2019-04-07T22:17:21.323Z,9.50
2019-04-07T22:19:49.191Z,9.60
2019-04-07T22:22:16.897Z,9.60
2019-04-07T22:24:44.600Z,9.60
2019-04-07T22:27:12.462Z,9.70
2019-04-07T22:29:40.305Z,9.60
2019-04-07T22:32:07.991Z,9.60
2019-04-07T22:34:35.739Z,9.60
2019-04-07T22:37:04.759Z,9.60
2019-04-07T22:39:33.326Z,9.60
2019-04-07T22:42:02.202Z,9.60
2019-04-07T22:44:29.994Z,9.60
2019-04-07T22:46:58.434Z,9.60
2019-04-07T22:49:30.852Z,9.60
2019-04-07T22:51:56.678Z,9.60
2019-04-07T22:54:29.499Z,9.70
2019-04-07T22:56:54.803Z,9.70
2019-04-07T22:59:22.525Z,9.70
2019-04-07T23:01:50.289Z,9.70
2019-04-07T23:04:18.212Z,9.60
2019-04-07T23:06:45.955Z,9.50
2019-04-07T23:09:13.679Z,9.50
2019-04-07T23:11:41.408Z,9.40
2019-04-07T23:14:09.488Z,9.40
2019-04-07T23:16:38.032Z,9.40
2019-04-07T23:19:06.727Z,9.40
2019-04-07T23:21:34.704Z,9.40
2019-04-07T23:24:03.320Z,9.30
2019-04-07T23:26:32.040Z,9.30
2019-04-07T23:28:59.890Z,9.20
2019-04-07T23:31:29.958Z,9.20
2019-04-07T23:33:58.589Z,9.20
2019-04-07T23:36:28.405Z,9.10
2019-04-07T23:38:56.078Z,9.10
2019-04-07T23:41:23.772Z,9.10
2019-04-07T23:43:51.471Z,9.10
2019-04-07T23:46:24.204Z,9.10
2019-04-07T23:48:49.615Z,9.10
2019-04-07T23:51:18.513Z,9.10
2019-04-07T23:54:18.373Z,9.20
2019-04-07T23:56:46.147Z,9.20
2019-04-07T23:59:14.636Z,9.20
